sensor_id;sensor_type;location;lat;lon;timestamp;temperature;humidity
65707;SHT31;52423;43.512;5.220;2023-04-24T00:00:12;13.57;79.12
65707;SHT31;52423;43.512;5.220;2023-04-24T00:02:40;13.50;79.16
65707;SHT31;52423;43.512;5.220;2023-04-24T00:05:06;13.48;78.73
65707;SHT31;52423;43.512;5.220;2023-04-24T00:07:33;13.58;78.94
65707;SHT31;52423;43.512;5.220;2023-04-24T00:09:58;13.58;79.00
65707;SHT31;52423;43.512;5.220;2023-04-24T00:12:24;13.67;78.58
65707;SHT31;52423;43.512;5.220;2023-04-24T00:14:50;13.70;79.03
65707;SHT31;52423;43.512;5.220;2023-04-24T00:17:16;13.54;78.34
65707;SHT31;52423;43.512;5.220;2023-04-24T00:19:45;13.50;79.12
65707;SHT31;52423;43.512;5.220;2023-04-24T00:22:10;13.57;79.09
65707;SHT31;52423;43.512;5.220;2023-04-24T00:24:36;13.58;79.32
65707;SHT31;52423;43.512;5.220;2023-04-24T00:27:01;13.43;79.86
65707;SHT31;52423;43.512;5.220;2023-04-24T00:29:27;13.47;79.47
65707;SHT31;52423;43.512;5.220;2023-04-24T00:31:53;13.47;78.52
65707;SHT31;52423;43.512;5.220;2023-04-24T00:34:19;13.43;79.34
65707;SHT31;52423;43.512;5.220;2023-04-24T00:36:44;13.57;79.45
65707;SHT31;52423;43.512;5.220;2023-04-24T00:39:10;13.43;81.13
65707;SHT31;52423;43.512;5.220;2023-04-24T00:41:35;13.41;80.13
65707;SHT31;52423;43.512;5.220;2023-04-24T00:44:01;13.46;80.41
65707;SHT31;52423;43.512;5.220;2023-04-24T00:46:26;13.44;80.86
65707;SHT31;52423;43.512;5.220;2023-04-24T00:48:52;13.37;80.34
65707;SHT31;52423;43.512;5.220;2023-04-24T00:51:18;13.37;79.84
65707;SHT31;52423;43.512;5.220;2023-04-24T00:53:44;13.37;79.26
65707;SHT31;52423;43.512;5.220;2023-04-24T00:56:09;13.40;79.32
65707;SHT31;52423;43.512;5.220;2023-04-24T00:58:35;13.32;78.96
65707;SHT31;52423;43.512;5.220;2023-04-24T01:01:01;13.33;78.46
65707;SHT31;52423;43.512;5.220;2023-04-24T01:03:29;13.44;79.58
65707;SHT31;52423;43.512;5.220;2023-04-24T01:05:56;13.41;79.98
65707;SHT31;52423;43.512;5.220;2023-04-24T01:08:24;13.41;80.85
65707;SHT31;52423;43.512;5.220;2023-04-24T01:10:51;13.43;80.31
65707;SHT31;52423;43.512;5.220;2023-04-24T01:13:18;13.44;80.73
65707;SHT31;52423;43.512;5.220;2023-04-24T01:15:43;13.46;80.85
65707;SHT31;52423;43.512;5.220;2023-04-24T01:18:09;13.32;80.90
65707;SHT31;52423;43.512;5.220;2023-04-24T01:20:36;13.26;81.01
65707;SHT31;52423;43.512;5.220;2023-04-24T01:23:05;13.23;80.55
65707;SHT31;52423;43.512;5.220;2023-04-24T01:25:31;13.24;81.19
65707;SHT31;52423;43.512;5.220;2023-04-24T01:27:57;13.40;81.19
65707;SHT31;52423;43.512;5.220;2023-04-24T01:30:22;13.30;80.52
65707;SHT31;52423;43.512;5.220;2023-04-24T01:32:48;13.28;81.66
65707;SHT31;52423;43.512;5.220;2023-04-24T01:35:13;13.24;81.09
65707;SHT31;52423;43.512;5.220;2023-04-24T01:37:39;13.39;80.88
65707;SHT31;52423;43.512;5.220;2023-04-24T01:40:06;13.41;80.67
65707;SHT31;52423;43.512;5.220;2023-04-24T01:42:32;13.36;80.76
65707;SHT31;52423;43.512;5.220;2023-04-24T01:44:57;13.16;80.96
65707;SHT31;52423;43.512;5.220;2023-04-24T01:47:23;13.22;79.27
65707;SHT31;52423;43.512;5.220;2023-04-24T01:49:50;13.27;78.95
65707;SHT31;52423;43.512;5.220;2023-04-24T01:52:16;13.23;78.96
65707;SHT31;52423;43.512;5.220;2023-04-24T01:54:43;13.13;79.95
65707;SHT31;52423;43.512;5.220;2023-04-24T01:57:08;13.13;80.73
65707;SHT31;52423;43.512;5.220;2023-04-24T01:59:34;12.96;81.12
65707;SHT31;52423;43.512;5.220;2023-04-24T02:02:01;13.06;81.24
65707;SHT31;52423;43.512;5.220;2023-04-24T02:04:27;13.03;80.73
65707;SHT31;52423;43.512;5.220;2023-04-24T02:06:53;12.96;81.51
65707;SHT31;52423;43.512;5.220;2023-04-24T02:09:18;13.04;81.16
65707;SHT31;52423;43.512;5.220;2023-04-24T02:11:43;13.12;81.41
65707;SHT31;52423;43.512;5.220;2023-04-24T02:14:09;13.04;82.18
65707;SHT31;52423;43.512;5.220;2023-04-24T02:16:34;13.03;81.60
65707;SHT31;52423;43.512;5.220;2023-04-24T02:19:01;13.02;82.40
65707;SHT31;52423;43.512;5.220;2023-04-24T02:21:27;13.06;79.66
65707;SHT31;52423;43.512;5.220;2023-04-24T02:23:53;13.02;78.89
65707;SHT31;52423;43.512;5.220;2023-04-24T02:26:19;13.02;79.46
65707;SHT31;52423;43.512;5.220;2023-04-24T02:28:44;12.96;79.54
65707;SHT31;52423;43.512;5.220;2023-04-24T02:31:09;12.97;80.58
65707;SHT31;52423;43.512;5.220;2023-04-24T02:33:35;12.99;81.02
65707;SHT31;52423;43.512;5.220;2023-04-24T02:36:01;12.92;82.20
65707;SHT31;52423;43.512;5.220;2023-04-24T02:38:27;12.83;81.63
65707;SHT31;52423;43.512;5.220;2023-04-24T02:40:52;12.82;82.02
65707;SHT31;52423;43.512;5.220;2023-04-24T02:43:18;12.91;81.58
65707;SHT31;52423;43.512;5.220;2023-04-24T02:45:43;12.76;83.16
65707;SHT31;52423;43.512;5.220;2023-04-24T02:48:08;12.79;83.29
65707;SHT31;52423;43.512;5.220;2023-04-24T02:50:34;12.76;83.03
65707;SHT31;52423;43.512;5.220;2023-04-24T02:52:59;12.88;82.71
65707;SHT31;52423;43.512;5.220;2023-04-24T02:55:25;12.76;82.46
65707;SHT31;52423;43.512;5.220;2023-04-24T02:57:50;12.85;82.07
65707;SHT31;52423;43.512;5.220;2023-04-24T03:00:16;12.75;82.56
65707;SHT31;52423;43.512;5.220;2023-04-24T03:02:41;12.79;82.17
65707;SHT31;52423;43.512;5.220;2023-04-24T03:05:07;12.68;82.78
65707;SHT31;52423;43.512;5.220;2023-04-24T03:07:33;12.73;81.24
65707;SHT31;52423;43.512;5.220;2023-04-24T03:09:58;12.56;83.25
65707;SHT31;52423;43.512;5.220;2023-04-24T03:12:24;12.65;82.00
65707;SHT31;52423;43.512;5.220;2023-04-24T03:14:50;12.65;82.19
65707;SHT31;52423;43.512;5.220;2023-04-24T03:17:16;12.68;82.29
65707;SHT31;52423;43.512;5.220;2023-04-24T03:19:41;12.63;82.44
65707;SHT31;52423;43.512;5.220;2023-04-24T03:22:06;12.59;82.54
65707;SHT31;52423;43.512;5.220;2023-04-24T03:24:34;12.61;82.31
65707;SHT31;52423;43.512;5.220;2023-04-24T03:26:59;12.52;82.17
65707;SHT31;52423;43.512;5.220;2023-04-24T03:29:25;12.48;81.51
65707;SHT31;52423;43.512;5.220;2023-04-24T03:31:50;12.54;82.02
65707;SHT31;52423;43.512;5.220;2023-04-24T03:34:16;12.49;81.84
65707;SHT31;52423;43.512;5.220;2023-04-24T03:36:41;12.38;81.52
65707;SHT31;52423;43.512;5.220;2023-04-24T03:39:06;12.38;81.78
65707;SHT31;52423;43.512;5.220;2023-04-24T03:41:32;12.37;82.16
65707;SHT31;52423;43.512;5.220;2023-04-24T03:43:58;12.42;81.95
65707;SHT31;52423;43.512;5.220;2023-04-24T03:46:23;12.30;81.81
65707;SHT31;52423;43.512;5.220;2023-04-24T03:48:49;12.35;81.37
65707;SHT31;52423;43.512;5.220;2023-04-24T03:51:14;12.32;81.44
65707;SHT31;52423;43.512;5.220;2023-04-24T03:53:40;12.11;81.69
65707;SHT31;52423;43.512;5.220;2023-04-24T03:56:05;12.07;81.69
65707;SHT31;52423;43.512;5.220;2023-04-24T03:58:30;11.93;82.20
65707;SHT31;52423;43.512;5.220;2023-04-24T04:00:56;11.97;81.77
65707;SHT31;52423;43.512;5.220;2023-04-24T04:03:23;11.73;82.11
65707;SHT31;52423;43.512;5.220;2023-04-24T04:05:48;11.52;82.73
65707;SHT31;52423;43.512;5.220;2023-04-24T04:08:14;11.59;84.05
65707;SHT31;52423;43.512;5.220;2023-04-24T04:10:39;11.59;83.59
65707;SHT31;52423;43.512;5.220;2023-04-24T04:13:05;11.73;82.70
65707;SHT31;52423;43.512;5.220;2023-04-24T04:15:31;11.44;83.41
65707;SHT31;52423;43.512;5.220;2023-04-24T04:17:57;11.44;84.33
65707;SHT31;52423;43.512;5.220;2023-04-24T04:20:22;11.44;83.89
65707;SHT31;52423;43.512;5.220;2023-04-24T04:22:47;11.38;83.23
65707;SHT31;52423;43.512;5.220;2023-04-24T04:25:13;11.26;83.89
65707;SHT31;52423;43.512;5.220;2023-04-24T04:27:38;11.18;84.50
65707;SHT31;52423;43.512;5.220;2023-04-24T04:30:05;11.29;83.77
65707;SHT31;52423;43.512;5.220;2023-04-24T04:32:34;11.38;83.23
65707;SHT31;52423;43.512;5.220;2023-04-24T04:35:02;11.28;83.10
65707;SHT31;52423;43.512;5.220;2023-04-24T04:37:29;11.25;83.32
65707;SHT31;52423;43.512;5.220;2023-04-24T04:39:55;11.08;83.88
65707;SHT31;52423;43.512;5.220;2023-04-24T04:42:20;11.12;83.91
65707;SHT31;52423;43.512;5.220;2023-04-24T04:44:46;11.08;83.91
65707;SHT31;52423;43.512;5.220;2023-04-24T04:47:11;11.28;82.61
65707;SHT31;52423;43.512;5.220;2023-04-24T04:49:38;11.22;83.11
65707;SHT31;52423;43.512;5.220;2023-04-24T04:52:03;11.22;82.60
65707;SHT31;52423;43.512;5.220;2023-04-24T04:54:29;11.14;82.74
65707;SHT31;52423;43.512;5.220;2023-04-24T04:56:54;11.31;82.20
65707;SHT31;52423;43.512;5.220;2023-04-24T04:59:20;11.26;82.36
65707;SHT31;52423;43.512;5.220;2023-04-24T05:01:46;11.31;82.89
65707;SHT31;52423;43.512;5.220;2023-04-24T05:04:11;11.36;82.69
65707;SHT31;52423;43.512;5.220;2023-04-24T05:06:37;11.43;82.28
65707;SHT31;52423;43.512;5.220;2023-04-24T05:09:02;11.51;82.45
65707;SHT31;52423;43.512;5.220;2023-04-24T05:11:28;11.44;82.62
65707;SHT31;52423;43.512;5.220;2023-04-24T05:13:54;11.63;82.49
65707;SHT31;52423;43.512;5.220;2023-04-24T05:16:20;11.76;81.95
65707;SHT31;52423;43.512;5.220;2023-04-24T05:18:46;11.82;82.21
65707;SHT31;52423;43.512;5.220;2023-04-24T05:21:11;12.00;82.02
65707;SHT31;52423;43.512;5.220;2023-04-24T05:23:37;12.10;81.58
65707;SHT31;52423;43.512;5.220;2023-04-24T05:26:02;12.05;82.41
65707;SHT31;52423;43.512;5.220;2023-04-24T05:28:27;12.17;81.55
65707;SHT31;52423;43.512;5.220;2023-04-24T05:30:56;12.28;80.99
65707;SHT31;52423;43.512;5.220;2023-04-24T05:33:21;12.31;80.56
65707;SHT31;52423;43.512;5.220;2023-04-24T05:35:47;12.38;80.12
65707;SHT31;52423;43.512;5.220;2023-04-24T05:38:13;12.40;79.87
65707;SHT31;52423;43.512;5.220;2023-04-24T05:40:39;12.40;79.35
65707;SHT31;52423;43.512;5.220;2023-04-24T05:43:05;12.54;78.97
65707;SHT31;52423;43.512;5.220;2023-04-24T05:45:30;12.55;78.70
65707;SHT31;52423;43.512;5.220;2023-04-24T05:47:56;12.55;79.04
65707;SHT31;52423;43.512;5.220;2023-04-24T05:50:22;12.58;78.39
65707;SHT31;52423;43.512;5.220;2023-04-24T05:52:47;12.65;77.79
65707;SHT31;52423;43.512;5.220;2023-04-24T05:55:12;12.65;78.53
65707;SHT31;52423;43.512;5.220;2023-04-24T05:57:38;12.73;78.07
65707;SHT31;52423;43.512;5.220;2023-04-24T06:00:05;12.79;77.81
65707;SHT31;52423;43.512;5.220;2023-04-24T06:02:31;12.86;77.66
65707;SHT31;52423;43.512;5.220;2023-04-24T06:04:58;12.96;77.24
65707;SHT31;52423;43.512;5.220;2023-04-24T06:07:25;13.07;76.62
65707;SHT31;52423;43.512;5.220;2023-04-24T06:09:51;13.10;76.04
65707;SHT31;52423;43.512;5.220;2023-04-24T06:12:17;13.19;74.99
65707;SHT31;52423;43.512;5.220;2023-04-24T06:14:42;13.30;74.57
65707;SHT31;52423;43.512;5.220;2023-04-24T06:17:08;13.34;74.25
65707;SHT31;52423;43.512;5.220;2023-04-24T06:19:33;13.43;74.11
65707;SHT31;52423;43.512;5.220;2023-04-24T06:21:58;13.53;73.82
65707;SHT31;52423;43.512;5.220;2023-04-24T06:24:27;13.57;73.19
65707;SHT31;52423;43.512;5.220;2023-04-24T06:26:52;13.64;74.07
65707;SHT31;52423;43.512;5.220;2023-04-24T06:29:18;13.78;74.21
65707;SHT31;52423;43.512;5.220;2023-04-24T06:31:43;13.85;72.30
65707;SHT31;52423;43.512;5.220;2023-04-24T06:34:08;13.94;72.88
65707;SHT31;52423;43.512;5.220;2023-04-24T06:36:34;14.05;72.04
65707;SHT31;52423;43.512;5.220;2023-04-24T06:39:00;14.13;72.51
65707;SHT31;52423;43.512;5.220;2023-04-24T06:41:26;14.13;72.17
65707;SHT31;52423;43.512;5.220;2023-04-24T06:43:52;14.19;71.37
65707;SHT31;52423;43.512;5.220;2023-04-24T06:46:17;14.23;70.92
65707;SHT31;52423;43.512;5.220;2023-04-24T06:48:43;14.33;69.95
65707;SHT31;52423;43.512;5.220;2023-04-24T06:51:08;14.46;69.91
65707;SHT31;52423;43.512;5.220;2023-04-24T06:53:34;14.62;70.27
65707;SHT31;52423;43.512;5.220;2023-04-24T06:56:00;14.64;68.94
65707;SHT31;52423;43.512;5.220;2023-04-24T06:58:25;14.76;69.44
65707;SHT31;52423;43.512;5.220;2023-04-24T07:00:51;14.87;69.76
65707;SHT31;52423;43.512;5.220;2023-04-24T07:03:16;14.94;68.65
65707;SHT31;52423;43.512;5.220;2023-04-24T07:05:41;14.93;67.38
65707;SHT31;52423;43.512;5.220;2023-04-24T07:08:07;14.93;67.85
65707;SHT31;52423;43.512;5.220;2023-04-24T07:10:34;15.00;68.30
65707;SHT31;52423;43.512;5.220;2023-04-24T07:13:00;15.12;67.90
65707;SHT31;52423;43.512;5.220;2023-04-24T07:15:26;15.11;67.39
65707;SHT31;52423;43.512;5.220;2023-04-24T07:17:52;15.24;67.90
65707;SHT31;52423;43.512;5.220;2023-04-24T07:20:17;15.31;66.61
65707;SHT31;52423;43.512;5.220;2023-04-24T07:22:43;15.44;67.38
65707;SHT31;52423;43.512;5.220;2023-04-24T07:25:08;15.58;67.01
65707;SHT31;52423;43.512;5.220;2023-04-24T07:27:34;15.66;66.26
65707;SHT31;52423;43.512;5.220;2023-04-24T07:30:00;15.81;65.55
65707;SHT31;52423;43.512;5.220;2023-04-24T07:32:25;16.09;65.01
65707;SHT31;52423;43.512;5.220;2023-04-24T07:34:51;16.04;63.69
65707;SHT31;52423;43.512;5.220;2023-04-24T07:37:16;15.92;64.29
65707;SHT31;52423;43.512;5.220;2023-04-24T07:39:42;15.92;63.83
65707;SHT31;52423;43.512;5.220;2023-04-24T07:42:07;15.96;64.60
65707;SHT31;52423;43.512;5.220;2023-04-24T07:44:33;16.14;63.43
65707;SHT31;52423;43.512;5.220;2023-04-24T07:46:58;16.25;63.93
65707;SHT31;52423;43.512;5.220;2023-04-24T07:49:23;16.50;62.22
65707;SHT31;52423;43.512;5.220;2023-04-24T07:51:49;16.54;62.55
65707;SHT31;52423;43.512;5.220;2023-04-24T07:54:15;16.64;62.32
65707;SHT31;52423;43.512;5.220;2023-04-24T07:56:41;16.64;62.26
65707;SHT31;52423;43.512;5.220;2023-04-24T07:59:08;16.79;62.16
65707;SHT31;52423;43.512;5.220;2023-04-24T08:01:35;16.57;61.59
65707;SHT31;52423;43.512;5.220;2023-04-24T08:04:00;16.72;61.57
65707;SHT31;52423;43.512;5.220;2023-04-24T08:06:25;16.75;60.48
65707;SHT31;52423;43.512;5.220;2023-04-24T08:08:58;16.75;61.22
65707;SHT31;52423;43.512;5.220;2023-04-24T08:11:24;16.67;61.13
65707;SHT31;52423;43.512;5.220;2023-04-24T08:13:49;16.89;60.73
65707;SHT31;52423;43.512;5.220;2023-04-24T08:16:15;16.86;60.48
65707;SHT31;52423;43.512;5.220;2023-04-24T08:18:40;17.06;59.73
65707;SHT31;52423;43.512;5.220;2023-04-24T08:21:06;17.29;60.52
65707;SHT31;52423;43.512;5.220;2023-04-24T08:23:31;17.34;60.94
65707;SHT31;52423;43.512;5.220;2023-04-24T08:25:57;17.40;59.24
65707;SHT31;52423;43.512;5.220;2023-04-24T08:28:23;17.57;60.45
65707;SHT31;52423;43.512;5.220;2023-04-24T08:30:48;17.75;59.54
65707;SHT31;52423;43.512;5.220;2023-04-24T08:33:19;17.88;58.41
65707;SHT31;52423;43.512;5.220;2023-04-24T08:35:45;17.87;59.50
65707;SHT31;52423;43.512;5.220;2023-04-24T08:38:10;18.11;59.06
65707;SHT31;52423;43.512;5.220;2023-04-24T08:40:36;17.77;58.55
65707;SHT31;52423;43.512;5.220;2023-04-24T08:43:03;17.97;58.16
65707;SHT31;52423;43.512;5.220;2023-04-24T08:45:29;18.09;58.59
65707;SHT31;52423;43.512;5.220;2023-04-24T08:47:54;17.85;57.82
65707;SHT31;52423;43.512;5.220;2023-04-24T08:50:21;18.29;58.32
65707;SHT31;52423;43.512;5.220;2023-04-24T08:52:48;18.34;54.72
65707;SHT31;52423;43.512;5.220;2023-04-24T08:55:14;18.39;55.78
65707;SHT31;52423;43.512;5.220;2023-04-24T08:57:42;18.56;56.01
65707;SHT31;52423;43.512;5.220;2023-04-24T09:00:10;18.70;55.27
65707;SHT31;52423;43.512;5.220;2023-04-24T09:02:36;18.82;53.68
65707;SHT31;52423;43.512;5.220;2023-04-24T09:05:02;18.76;53.95
65707;SHT31;52423;43.512;5.220;2023-04-24T09:07:30;18.92;52.96
65707;SHT31;52423;43.512;5.220;2023-04-24T09:09:57;18.53;53.73
65707;SHT31;52423;43.512;5.220;2023-04-24T09:12:24;18.45;54.16
65707;SHT31;52423;43.512;5.220;2023-04-24T09:14:50;18.48;55.06
65707;SHT31;52423;43.512;5.220;2023-04-24T09:17:16;18.51;54.86
65707;SHT31;52423;43.512;5.220;2023-04-24T09:19:41;18.73;54.66
65707;SHT31;52423;43.512;5.220;2023-04-24T09:22:08;18.83;53.98
65707;SHT31;52423;43.512;5.220;2023-04-24T09:24:34;19.04;52.15
65707;SHT31;52423;43.512;5.220;2023-04-24T09:27:00;18.87;52.64
65707;SHT31;52423;43.512;5.220;2023-04-24T09:29:29;19.20;52.81
65707;SHT31;52423;43.512;5.220;2023-04-24T09:31:54;19.44;52.20
65707;SHT31;52423;43.512;5.220;2023-04-24T09:34:26;19.06;52.57
65707;SHT31;52423;43.512;5.220;2023-04-24T09:36:52;18.82;52.93
65707;SHT31;52423;43.512;5.220;2023-04-24T09:39:18;19.02;51.43
65707;SHT31;52423;43.512;5.220;2023-04-24T09:41:54;19.51;47.76
65707;SHT31;52423;43.512;5.220;2023-04-24T09:44:24;19.45;48.70
65707;SHT31;52423;43.512;5.220;2023-04-24T09:46:58;19.25;49.57
65707;SHT31;52423;43.512;5.220;2023-04-24T09:49:28;19.32;47.22
65707;SHT31;52423;43.512;5.220;2023-04-24T09:54:29;19.58;46.28
65707;SHT31;52423;43.512;5.220;2023-04-24T09:56:55;19.59;47.04
65707;SHT31;52423;43.512;5.220;2023-04-24T09:59:21;19.83;47.46
65707;SHT31;52423;43.512;5.220;2023-04-24T10:01:47;19.78;48.78
65707;SHT31;52423;43.512;5.220;2023-04-24T10:04:21;19.79;48.01
65707;SHT31;52423;43.512;5.220;2023-04-24T10:06:48;19.96;47.42
65707;SHT31;52423;43.512;5.220;2023-04-24T10:09:15;20.12;47.21
65707;SHT31;52423;43.512;5.220;2023-04-24T10:11:42;20.27;46.03
65707;SHT31;52423;43.512;5.220;2023-04-24T10:14:10;20.64;47.10
65707;SHT31;52423;43.512;5.220;2023-04-24T10:16:38;20.68;45.87
65707;SHT31;52423;43.512;5.220;2023-04-24T10:19:04;20.37;46.30
65707;SHT31;52423;43.512;5.220;2023-04-24T10:21:30;20.22;44.40
65707;SHT31;52423;43.512;5.220;2023-04-24T10:23:55;20.37;43.91
65707;SHT31;52423;43.512;5.220;2023-04-24T10:26:21;20.02;44.14
65707;SHT31;52423;43.512;5.220;2023-04-24T10:28:47;19.74;43.30
65707;SHT31;52423;43.512;5.220;2023-04-24T10:31:14;19.11;46.07
65707;SHT31;52423;43.512;5.220;2023-04-24T10:33:43;19.07;43.62
65707;SHT31;52423;43.512;5.220;2023-04-24T10:36:11;19.59;44.18
65707;SHT31;52423;43.512;5.220;2023-04-24T10:38:39;20.03;44.74
65707;SHT31;52423;43.512;5.220;2023-04-24T10:41:08;20.03;43.42
65707;SHT31;52423;43.512;5.220;2023-04-24T10:43:35;20.05;42.73
65707;SHT31;52423;43.512;5.220;2023-04-24T10:46:01;20.51;42.99
65707;SHT31;52423;43.512;5.220;2023-04-24T10:48:28;20.55;41.67
65707;SHT31;52423;43.512;5.220;2023-04-24T10:50:53;20.63;41.92
65707;SHT31;52423;43.512;5.220;2023-04-24T10:53:19;20.64;41.41
65707;SHT31;52423;43.512;5.220;2023-04-24T10:58:14;20.96;42.09
65707;SHT31;52423;43.512;5.220;2023-04-24T11:00:42;20.91;42.95
65707;SHT31;52423;43.512;5.220;2023-04-24T11:03:30;20.84;43.01
65707;SHT31;52423;43.512;5.220;2023-04-24T11:06:06;20.87;42.44
65707;SHT31;52423;43.512;5.220;2023-04-24T11:08:52;21.18;44.00
65707;SHT31;52423;43.512;5.220;2023-04-24T11:11:28;21.08;43.35
65707;SHT31;52423;43.512;5.220;2023-04-24T11:19:25;20.91;45.78
65707;SHT31;52423;43.512;5.220;2023-04-24T11:21:58;21.09;45.75
65707;SHT31;52423;43.512;5.220;2023-04-24T11:27:16;21.53;45.05
65707;SHT31;52423;43.512;5.220;2023-04-24T11:32:36;21.80;44.10
65707;SHT31;52423;43.512;5.220;2023-04-24T11:35:06;21.35;45.07
65707;SHT31;52423;43.512;5.220;2023-04-24T11:37:39;21.69;45.81
65707;SHT31;52423;43.512;5.220;2023-04-24T11:40:07;21.76;43.61
65707;SHT31;52423;43.512;5.220;2023-04-24T11:42:53;21.42;43.55
65707;SHT31;52423;43.512;5.220;2023-04-24T11:45:28;21.76;43.41
65707;SHT31;52423;43.512;5.220;2023-04-24T11:47:53;21.05;44.59
65707;SHT31;52423;43.512;5.220;2023-04-24T11:50:21;21.25;44.58
65707;SHT31;52423;43.512;5.220;2023-04-24T11:52:49;21.22;44.68
65707;SHT31;52423;43.512;5.220;2023-04-24T11:57:44;21.19;44.07
65707;SHT31;52423;43.512;5.220;2023-04-24T12:00:18;21.49;42.54
65707;SHT31;52423;43.512;5.220;2023-04-24T12:02:44;21.67;43.24
65707;SHT31;52423;43.512;5.220;2023-04-24T12:05:39;22.01;41.88
65707;SHT31;52423;43.512;5.220;2023-04-24T12:08:05;21.73;42.92
65707;SHT31;52423;43.512;5.220;2023-04-24T12:10:31;21.67;43.66
65707;SHT31;52423;43.512;5.220;2023-04-24T12:12:58;21.62;41.86
65707;SHT31;52423;43.512;5.220;2023-04-24T12:15:24;22.10;43.37
65707;SHT31;52423;43.512;5.220;2023-04-24T12:17:51;21.80;41.41
65707;SHT31;52423;43.512;5.220;2023-04-24T12:20:16;21.57;42.41
65707;SHT31;52423;43.512;5.220;2023-04-24T12:22:45;21.94;42.01
65707;SHT31;52423;43.512;5.220;2023-04-24T12:25:12;21.55;40.24
65707;SHT31;52423;43.512;5.220;2023-04-24T12:27:37;21.64;41.86
65707;SHT31;52423;43.512;5.220;2023-04-24T12:30:05;21.53;41.86
65707;SHT31;52423;43.512;5.220;2023-04-24T12:32:30;21.72;42.93
65707;SHT31;52423;43.512;5.220;2023-04-24T12:34:56;21.96;41.64
65707;SHT31;52423;43.512;5.220;2023-04-24T12:37:26;21.83;40.81
65707;SHT31;52423;43.512;5.220;2023-04-24T12:40:18;21.74;40.35
65707;SHT31;52423;43.512;5.220;2023-04-24T12:42:45;21.82;39.80
65707;SHT31;52423;43.512;5.220;2023-04-24T12:45:12;21.89;40.66
65707;SHT31;52423;43.512;5.220;2023-04-24T12:47:38;21.77;41.39
65707;SHT31;52423;43.512;5.220;2023-04-24T12:50:05;21.64;41.44
65707;SHT31;52423;43.512;5.220;2023-04-24T12:52:31;21.46;42.44
65707;SHT31;52423;43.512;5.220;2023-04-24T12:54:58;21.38;39.78
65707;SHT31;52423;43.512;5.220;2023-04-24T12:57:25;21.28;39.35
65707;SHT31;52423;43.512;5.220;2023-04-24T12:59:54;20.98;40.22
65707;SHT31;52423;43.512;5.220;2023-04-24T13:02:20;20.80;40.66
65707;SHT31;52423;43.512;5.220;2023-04-24T13:04:47;20.77;41.40
65707;SHT31;52423;43.512;5.220;2023-04-24T13:07:13;20.64;39.66
65707;SHT31;52423;43.512;5.220;2023-04-24T13:09:40;20.60;39.23
65707;SHT31;52423;43.512;5.220;2023-04-24T13:12:06;20.57;40.19
65707;SHT31;52423;43.512;5.220;2023-04-24T13:14:32;20.55;40.87
65707;SHT31;52423;43.512;5.220;2023-04-24T13:16:57;20.48;40.28
65707;SHT31;52423;43.512;5.220;2023-04-24T13:19:27;20.53;40.45
65707;SHT31;52423;43.512;5.220;2023-04-24T13:21:55;20.54;40.71
65707;SHT31;52423;43.512;5.220;2023-04-24T13:24:22;20.48;40.98
65707;SHT31;52423;43.512;5.220;2023-04-24T13:26:50;20.51;40.05
65707;SHT31;52423;43.512;5.220;2023-04-24T13:29:15;20.47;39.95
65707;SHT31;52423;43.512;5.220;2023-04-24T13:31:40;20.54;41.97
65707;SHT31;52423;43.512;5.220;2023-04-24T13:34:06;20.67;39.57
65707;SHT31;52423;43.512;5.220;2023-04-24T13:36:32;20.74;39.96
65707;SHT31;52423;43.512;5.220;2023-04-24T13:38:57;20.78;39.82
65707;SHT31;52423;43.512;5.220;2023-04-24T13:41:23;20.71;40.98
65707;SHT31;52423;43.512;5.220;2023-04-24T13:43:48;20.70;40.62
65707;SHT31;52423;43.512;5.220;2023-04-24T13:46:14;20.74;41.12
65707;SHT31;52423;43.512;5.220;2023-04-24T13:48:39;20.84;40.15
65707;SHT31;52423;43.512;5.220;2023-04-24T13:51:05;20.81;39.45
65707;SHT31;52423;43.512;5.220;2023-04-24T13:53:30;20.85;39.17
65707;SHT31;52423;43.512;5.220;2023-04-24T13:55:57;20.91;38.72
65707;SHT31;52423;43.512;5.220;2023-04-24T13:58:22;20.88;39.59
65707;SHT31;52423;43.512;5.220;2023-04-24T14:00:48;21.06;37.53
65707;SHT31;52423;43.512;5.220;2023-04-24T14:03:13;21.26;37.29
65707;SHT31;52423;43.512;5.220;2023-04-24T14:05:38;21.36;38.14
65707;SHT31;52423;43.512;5.220;2023-04-24T14:08:04;21.45;36.34
65707;SHT31;52423;43.512;5.220;2023-04-24T14:10:29;21.36;36.92
65707;SHT31;52423;43.512;5.220;2023-04-24T14:12:55;21.35;38.51
65707;SHT31;52423;43.512;5.220;2023-04-24T14:15:20;21.53;37.88
65707;SHT31;52423;43.512;5.220;2023-04-24T14:17:46;21.41;37.60
65707;SHT31;52423;43.512;5.220;2023-04-24T14:20:12;21.49;37.27
65707;SHT31;52423;43.512;5.220;2023-04-24T14:22:37;21.52;37.02
65707;SHT31;52423;43.512;5.220;2023-04-24T14:25:04;21.42;36.82
65707;SHT31;52423;43.512;5.220;2023-04-24T14:27:31;21.39;37.95
65707;SHT31;52423;43.512;5.220;2023-04-24T14:29:57;21.41;36.19
65707;SHT31;52423;43.512;5.220;2023-04-24T14:32:22;21.36;36.96
65707;SHT31;52423;43.512;5.220;2023-04-24T14:34:48;21.56;38.33
65707;SHT31;52423;43.512;5.220;2023-04-24T14:37:13;21.67;36.50
65707;SHT31;52423;43.512;5.220;2023-04-24T14:39:38;21.70;35.78
65707;SHT31;52423;43.512;5.220;2023-04-24T14:42:04;21.67;35.94
65707;SHT31;52423;43.512;5.220;2023-04-24T14:44:29;21.69;35.13
65707;SHT31;52423;43.512;5.220;2023-04-24T14:46:55;21.66;36.77
65707;SHT31;52423;43.512;5.220;2023-04-24T14:49:20;21.62;36.29
65707;SHT31;52423;43.512;5.220;2023-04-24T14:51:45;21.80;36.66
65707;SHT31;52423;43.512;5.220;2023-04-24T14:54:11;21.79;34.81
65707;SHT31;52423;43.512;5.220;2023-04-24T14:56:36;21.76;36.04
65707;SHT31;52423;43.512;5.220;2023-04-24T14:59:02;21.83;36.12
65707;SHT31;52423;43.512;5.220;2023-04-24T15:01:28;21.87;36.19
65707;SHT31;52423;43.512;5.220;2023-04-24T15:03:53;21.86;35.38
65707;SHT31;52423;43.512;5.220;2023-04-24T15:06:19;21.80;35.99
65707;SHT31;52423;43.512;5.220;2023-04-24T15:08:45;21.87;34.37
65707;SHT31;52423;43.512;5.220;2023-04-24T15:11:10;21.79;34.97
65707;SHT31;52423;43.512;5.220;2023-04-24T15:13:36;21.74;34.99
65707;SHT31;52423;43.512;5.220;2023-04-24T15:16:01;21.72;34.82
65707;SHT31;52423;43.512;5.220;2023-04-24T15:18:27;21.63;35.14
65707;SHT31;52423;43.512;5.220;2023-04-24T15:20:54;21.32;34.46
65707;SHT31;52423;43.512;5.220;2023-04-24T15:23:21;21.41;35.67
65707;SHT31;52423;43.512;5.220;2023-04-24T15:25:47;21.52;35.17
65707;SHT31;52423;43.512;5.220;2023-04-24T15:28:12;21.60;35.35
65707;SHT31;52423;43.512;5.220;2023-04-24T15:30:38;21.62;35.60
65707;SHT31;52423;43.512;5.220;2023-04-24T15:33:03;21.63;35.33
65707;SHT31;52423;43.512;5.220;2023-04-24T15:35:29;21.70;35.37
65707;SHT31;52423;43.512;5.220;2023-04-24T15:37:54;21.66;34.80
65707;SHT31;52423;43.512;5.220;2023-04-24T15:40:20;21.59;35.57
65707;SHT31;52423;43.512;5.220;2023-04-24T15:42:45;21.52;35.24